sensor_id;sensor_type;location;lat;lon;timestamp;pressure;altitude;pressure_sealevel;temperature;humidity
51261;BME280;61705;46.228;24.812;2023-03-19T00:02:04;98017.47;;;-0.87;83.99
51261;BME280;61705;46.228;24.812;2023-03-19T00:04:43;98015.72;;;-0.89;83.90
51261;BME280;61705;46.228;24.812;2023-03-19T00:07:13;98015.69;;;-0.92;83.54
51261;BME280;61705;46.228;24.812;2023-03-19T00:09:42;98015.63;;;-1.09;83.55
51261;BME280;61705;46.228;24.812;2023-03-19T00:12:13;98016.41;;;-1.18;84.45
51261;BME280;61705;46.228;24.812;2023-03-19T00:14:40;98014.72;;;-1.14;83.98
51261;BME280;61705;46.228;24.812;2023-03-19T00:17:07;98014.72;;;-1.10;83.64
51261;BME280;61705;46.228;24.812;2023-03-19T00:19:34;98018.19;;;-1.11;83.89
51261;BME280;61705;46.228;24.812;2023-03-19T00:22:09;98015.56;;;-1.18;84.08
51261;BME280;61705;46.228;24.812;2023-03-19T00:24:38;98017.34;;;-1.11;84.98
51261;BME280;61705;46.228;24.812;2023-03-19T00:27:05;98016.50;;;-1.04;84.87
51261;BME280;61705;46.228;24.812;2023-03-19T00:29:32;98015.66;;;-1.02;84.53
51261;BME280;61705;46.228;24.812;2023-03-19T00:31:59;98017.38;;;-1.01;84.48
51261;BME280;61705;46.228;24.812;2023-03-19T00:34:26;98011.22;;;-1.16;84.49
51261;BME280;61705;46.228;24.812;2023-03-19T00:36:56;98013.84;;;-1.20;84.77
51261;BME280;61705;46.228;24.812;2023-03-19T00:39:28;98017.31;;;-1.16;84.50
51261;BME280;61705;46.228;24.812;2023-03-19T00:41:59;98007.63;;;-1.43;84.13
51261;BME280;61705;46.228;24.812;2023-03-19T00:44:26;98004.16;;;-1.47;84.54
51261;BME280;61705;46.228;24.812;2023-03-19T00:46:55;98007.56;;;-1.48;84.75
51261;BME280;61705;46.228;24.812;2023-03-19T00:49:22;98007.56;;;-1.48;85.14
51261;BME280;61705;46.228;24.812;2023-03-19T00:51:51;97999.81;;;-1.46;85.72
51261;BME280;61705;46.228;24.812;2023-03-19T00:54:20;98003.25;;;-1.47;85.98
51261;BME280;61705;46.228;24.812;2023-03-19T00:56:46;97998.91;;;-1.51;85.77
51261;BME280;61705;46.228;24.812;2023-03-19T00:59:13;97996.25;;;-1.59;86.19
51261;BME280;61705;46.228;24.812;2023-03-19T01:01:40;97991.97;;;-1.57;86.79
51261;BME280;61705;46.228;24.812;2023-03-19T01:04:07;98004.97;;;-1.48;87.02
51261;BME280;61705;46.228;24.812;2023-03-19T01:06:34;98001.56;;;-1.45;86.42
51261;BME280;61705;46.228;24.812;2023-03-19T01:09:03;98003.25;;;-1.47;86.23
51261;BME280;61705;46.228;24.812;2023-03-19T01:11:29;98002.41;;;-1.46;86.27
51261;BME280;61705;46.228;24.812;2023-03-19T01:13:57;98000.72;;;-1.42;85.86
51261;BME280;61705;46.228;24.812;2023-03-19T01:16:24;97992.88;;;-1.47;85.92
51261;BME280;61705;46.228;24.812;2023-03-19T01:18:53;97999.81;;;-1.49;85.98
51261;BME280;61705;46.228;24.812;2023-03-19T01:21:19;97999.78;;;-1.48;86.27
51261;BME280;61705;46.228;24.812;2023-03-19T01:23:51;97984.22;;;-1.54;86.19
51261;BME280;61705;46.228;24.812;2023-03-19T01:26:21;97989.38;;;-1.57;86.04
51261;BME280;61705;46.228;24.812;2023-03-19T01:28:48;97988.50;;;-1.57;86.03
51261;BME280;61705;46.228;24.812;2023-03-19T01:31:15;97988.47;;;-1.62;86.14
51261;BME280;61705;46.228;24.812;2023-03-19T01:33:42;97990.16;;;-1.70;86.28
51261;BME280;61705;46.228;24.812;2023-03-19T01:36:09;97988.38;;;-1.77;86.09
51261;BME280;61705;46.228;24.812;2023-03-19T01:38:38;97986.50;;;-1.89;86.21
51261;BME280;61705;46.228;24.812;2023-03-19T01:41:08;97990.84;;;-1.89;86.53
51261;BME280;61705;46.228;24.812;2023-03-19T01:43:35;97996.06;;;-1.82;86.77
51261;BME280;61705;46.228;24.812;2023-03-19T01:46:07;97991.78;;;-1.78;86.78
51261;BME280;61705;46.228;24.812;2023-03-19T01:48:45;97990.88;;;-1.86;86.77
51261;BME280;61705;46.228;24.812;2023-03-19T01:51:16;97992.66;;;-1.79;86.90
51261;BME280;61705;46.228;24.812;2023-03-19T01:53:53;97996.97;;;-1.80;86.55
51261;BME280;61705;46.228;24.812;2023-03-19T01:56:27;97996.97;;;-1.78;86.73
51261;BME280;61705;46.228;24.812;2023-03-19T01:59:08;97996.94;;;-1.83;86.84
51261;BME280;61705;46.228;24.812;2023-03-19T02:01:41;98002.16;;;-1.80;86.86
51261;BME280;61705;46.228;24.812;2023-03-19T02:04:09;97995.28;;;-1.78;86.52
51261;BME280;61705;46.228;24.812;2023-03-19T02:06:40;97995.22;;;-1.82;86.66
51261;BME280;61705;46.228;24.812;2023-03-19T02:09:13;97999.56;;;-1.80;86.91
51261;BME280;61705;46.228;24.812;2023-03-19T02:11:40;97995.25;;;-1.76;86.98
51261;BME280;61705;46.228;24.812;2023-03-19T02:14:08;98002.16;;;-1.78;86.83
51261;BME280;61705;46.228;24.812;2023-03-19T02:16:38;97995.22;;;-1.82;86.72
51261;BME280;61705;46.228;24.812;2023-03-19T02:19:09;97988.31;;;-1.83;86.86
51261;BME280;61705;46.228;24.812;2023-03-19T02:21:38;97993.38;;;-1.97;86.52
51261;BME280;61705;46.228;24.812;2023-03-19T02:24:13;97988.81;;;-2.20;86.35
51261;BME280;61705;46.228;24.812;2023-03-19T02:26:43;97992.09;;;-2.36;86.10
51261;BME280;61705;46.228;24.812;2023-03-19T02:29:11;97988.69;;;-2.35;86.35
51261;BME280;61705;46.228;24.812;2023-03-19T02:31:38;97994.81;;;-2.24;85.85
51261;BME280;61705;46.228;24.812;2023-03-19T02:36:59;97990.66;;;-2.09;86.57
51261;BME280;61705;46.228;24.812;2023-03-19T02:39:33;98005.34;;;-2.05;86.98
51261;BME280;61705;46.228;24.812;2023-03-19T02:42:03;98000.16;;;-2.07;87.15
51261;BME280;61705;46.228;24.812;2023-03-19T02:44:31;98003.66;;;-2.03;87.47
51261;BME280;61705;46.228;24.812;2023-03-19T02:47:00;97995.81;;;-2.11;87.24
51261;BME280;61705;46.228;24.812;2023-03-19T02:49:26;97997.59;;;-2.07;87.21
51261;BME280;61705;46.228;24.812;2023-03-19T02:51:56;97996.69;;;-2.10;87.12
51261;BME280;61705;46.228;24.812;2023-03-19T02:54:25;97997.47;;;-2.18;87.29
51261;BME280;61705;46.228;24.812;2023-03-19T02:56:52;97998.28;;;-2.25;87.38
51261;BME280;61705;46.228;24.812;2023-03-19T02:59:22;97997.34;;;-2.31;87.14
51261;BME280;61705;46.228;24.812;2023-03-19T03:01:51;97993.00;;;-2.34;87.53
51261;BME280;61705;46.228;24.812;2023-03-19T03:04:25;97998.97;;;-2.41;87.60
51261;BME280;61705;46.228;24.812;2023-03-19T03:06:52;97993.78;;;-2.43;87.73
51261;BME280;61705;46.228;24.812;2023-03-19T03:09:19;98005.78;;;-2.46;87.58
51261;BME280;61705;46.228;24.812;2023-03-19T03:11:46;97996.34;;;-2.46;87.61
51261;BME280;61705;46.228;24.812;2023-03-19T03:14:12;98001.44;;;-2.50;87.66
51261;BME280;61705;46.228;24.812;2023-03-19T03:16:39;97998.84;;;-2.52;87.62
51261;BME280;61705;46.228;24.812;2023-03-19T03:19:08;97997.03;;;-2.57;87.62
51261;BME280;61705;46.228;24.812;2023-03-19T03:21:35;97994.47;;;-2.59;88.00
51261;BME280;61705;46.228;24.812;2023-03-19T03:24:05;97996.06;;;-2.67;87.68
51261;BME280;61705;46.228;24.812;2023-03-19T03:26:32;97998.66;;;-2.67;87.74
51261;BME280;61705;46.228;24.812;2023-03-19T03:29:05;98000.28;;;-2.75;87.91
51261;BME280;61705;46.228;24.812;2023-03-19T03:31:32;97992.53;;;-2.77;88.07
51261;BME280;61705;46.228;24.812;2023-03-19T03:34:00;97996.88;;;-2.73;88.10
51261;BME280;61705;46.228;24.812;2023-03-19T03:36:30;97995.91;;;-2.81;87.71
51261;BME280;61705;46.228;24.812;2023-03-19T03:38:56;98002.84;;;-2.78;88.02
51261;BME280;61705;46.228;24.812;2023-03-19T03:41:24;97999.41;;;-2.77;87.74
51261;BME280;61705;46.228;24.812;2023-03-19T03:43:51;98001.94;;;-2.82;87.69
51261;BME280;61705;46.228;24.812;2023-03-19T03:46:17;98004.44;;;-2.88;87.67
51261;BME280;61705;46.228;24.812;2023-03-19T03:48:47;98004.38;;;-2.93;87.85
51261;BME280;61705;46.228;24.812;2023-03-19T03:51:15;98000.03;;;-2.97;88.01
51261;BME280;61705;46.228;24.812;2023-03-19T03:53:44;98003.47;;;-2.95;88.06
51261;BME280;61705;46.228;24.812;2023-03-19T03:56:13;98012.09;;;-2.97;88.08
51261;BME280;61705;46.228;24.812;2023-03-19T03:58:39;98014.59;;;-3.03;87.98
51261;BME280;61705;46.228;24.812;2023-03-19T04:01:07;98006.78;;;-3.05;88.25
51261;BME280;61705;46.228;24.812;2023-03-19T04:03:34;98005.88;;;-3.10;88.32
51261;BME280;61705;46.228;24.812;2023-03-19T04:06:03;98012.06;;;-3.00;88.42
51261;BME280;61705;46.228;24.812;2023-03-19T04:08:30;98012.09;;;-2.96;88.18
51261;BME280;61705;46.228;24.812;2023-03-19T04:10:57;98013.00;;;-2.94;88.19
51261;BME280;61705;46.228;24.812;2023-03-19T04:13:23;98013.75;;;-3.01;88.38
51261;BME280;61705;46.228;24.812;2023-03-19T04:15:50;98018.03;;;-3.01;88.04
51261;BME280;61705;46.228;24.812;2023-03-19T04:18:22;98011.19;;;-2.98;88.31
51261;BME280;61705;46.228;24.812;2023-03-19T04:20:50;98005.97;;;-3.04;88.07
51261;BME280;61705;46.228;24.812;2023-03-19T04:23:19;98010.28;;;-3.03;88.07
51261;BME280;61705;46.228;24.812;2023-03-19T04:25:50;97996.53;;;-2.99;88.39
51261;BME280;61705;46.228;24.812;2023-03-19T04:28:17;97996.59;;;-2.96;88.38
51261;BME280;61705;46.228;24.812;2023-03-19T04:30:44;98004.34;;;-2.96;88.36
51261;BME280;61705;46.228;24.812;2023-03-19T04:33:13;97995.72;;;-2.95;88.36
51261;BME280;61705;46.228;24.812;2023-03-19T04:35:44;98006.94;;;-2.94;88.51
51261;BME280;61705;46.228;24.812;2023-03-19T04:38:11;98002.63;;;-2.95;87.99
51261;BME280;61705;46.228;24.812;2023-03-19T04:40:38;98010.44;;;-2.91;88.04
51261;BME280;61705;46.228;24.812;2023-03-19T04:43:04;98003.66;;;-2.82;88.06
51261;BME280;61705;46.228;24.812;2023-03-19T04:45:31;98006.25;;;-2.81;87.90
51261;BME280;61705;46.228;24.812;2023-03-19T04:47:58;98004.53;;;-2.80;87.90
51261;BME280;61705;46.228;24.812;2023-03-19T04:50:25;98006.31;;;-2.75;87.86
51261;BME280;61705;46.228;24.812;2023-03-19T04:52:51;98016.66;;;-2.75;87.48
51261;BME280;61705;46.228;24.812;2023-03-19T04:55:18;98008.84;;;-2.81;87.73
51261;BME280;61705;46.228;24.812;2023-03-19T05:00:33;98002.78;;;-2.81;87.77
51261;BME280;61705;46.228;24.812;2023-03-19T05:03:03;98002.88;;;-2.74;87.80
51261;BME280;61705;46.228;24.812;2023-03-19T05:05:33;98008.97;;;-2.72;87.66
51261;BME280;61705;46.228;24.812;2023-03-19T05:08:05;98004.72;;;-2.67;87.58
51261;BME280;61705;46.228;24.812;2023-03-19T05:10:46;98004.75;;;-2.62;87.58
51261;BME280;61705;46.228;24.812;2023-03-19T05:13:16;98016.00;;;-2.58;87.38
51261;BME280;61705;46.228;24.812;2023-03-19T05:15:45;98010.84;;;-2.57;87.11
51261;BME280;61705;46.228;24.812;2023-03-19T05:18:13;98012.66;;;-2.51;87.25
51261;BME280;61705;46.228;24.812;2023-03-19T05:20:42;98018.69;;;-2.51;86.82
51261;BME280;61705;46.228;24.812;2023-03-19T05:23:08;98022.22;;;-2.46;86.75
51261;BME280;61705;46.228;24.812;2023-03-19T05:25:35;98017.03;;;-2.44;86.70
51261;BME280;61705;46.228;24.812;2023-03-19T05:28:03;98027.47;;;-2.38;86.54
51261;BME280;61705;46.228;24.812;2023-03-19T05:30:30;98016.34;;;-2.28;86.59
51261;BME280;61705;46.228;24.812;2023-03-19T05:32:57;98009.41;;;-2.32;86.20
51261;BME280;61705;46.228;24.812;2023-03-19T05:35:26;98011.97;;;-2.35;86.09
51261;BME280;61705;46.228;24.812;2023-03-19T05:37:53;98013.72;;;-2.31;86.10
51261;BME280;61705;46.228;24.812;2023-03-19T05:40:21;98015.53;;;-2.25;85.76
51261;BME280;61705;46.228;24.812;2023-03-19T05:42:49;98019.03;;;-2.20;85.76
51261;BME280;61705;46.228;24.812;2023-03-19T05:45:16;98016.44;;;-2.20;85.71
51261;BME280;61705;46.228;24.812;2023-03-19T05:47:46;98008.69;;;-2.19;85.64
51261;BME280;61705;46.228;24.812;2023-03-19T05:50:12;98012.97;;;-2.21;85.59
51261;BME280;61705;46.228;24.812;2023-03-19T05:52:39;98019.09;;;-2.14;85.67
51261;BME280;61705;46.228;24.812;2023-03-19T05:55:06;98011.31;;;-2.12;85.39
51261;BME280;61705;46.228;24.812;2023-03-19T05:57:33;98017.47;;;-2.04;85.05
51261;BME280;61705;46.228;24.812;2023-03-19T06:00:00;98017.53;;;-1.98;85.34
51261;BME280;61705;46.228;24.812;2023-03-19T06:02:29;98021.00;;;-1.93;85.39
51261;BME280;61705;46.228;24.812;2023-03-19T06:05:02;98018.47;;;-1.88;84.89
51261;BME280;61705;46.228;24.812;2023-03-19T06:07:29;98018.56;;;-1.81;84.92
51261;BME280;61705;46.228;24.812;2023-03-19T06:09:58;98021.19;;;-1.72;84.51
51261;BME280;61705;46.228;24.812;2023-03-19T06:12:25;98022.16;;;-1.63;84.61
51261;BME280;61705;46.228;24.812;2023-03-19T06:14:52;98028.19;;;-1.61;84.14
51261;BME280;61705;46.228;24.812;2023-03-19T06:17:25;98028.28;;;-1.52;84.21
51261;BME280;61705;46.228;24.812;2023-03-19T06:19:55;98030.06;;;-1.45;84.08
51261;BME280;61705;46.228;24.812;2023-03-19T06:22:22;98026.63;;;-1.41;83.75
51261;BME280;61705;46.228;24.812;2023-03-19T06:24:57;98031.00;;;-1.34;83.63
51261;BME280;61705;46.228;24.812;2023-03-19T06:27:25;98035.38;;;-1.28;83.76
51261;BME280;61705;46.228;24.812;2023-03-19T06:29:52;98040.59;;;-1.21;83.72
51261;BME280;61705;46.228;24.812;2023-03-19T06:32:22;98044.13;;;-1.11;83.66
51261;BME280;61705;46.228;24.812;2023-03-19T06:34:55;98044.16;;;-1.05;83.34
51261;BME280;61705;46.228;24.812;2023-03-19T06:37:22;98042.50;;;-0.93;83.36
51261;BME280;61705;46.228;24.812;2023-03-19T06:39:52;98040.84;;;-0.85;83.08
51261;BME280;61705;46.228;24.812;2023-03-19T06:42:20;98032.22;;;-0.74;83.18
51261;BME280;61705;46.228;24.812;2023-03-19T06:44:54;98035.75;;;-0.64;82.50
51261;BME280;61705;46.228;24.812;2023-03-19T06:47:21;98036.66;;;-0.53;82.59
51261;BME280;61705;46.228;24.812;2023-03-19T06:49:50;98030.66;;;-0.35;82.46
51261;BME280;61705;46.228;24.812;2023-03-19T06:52:17;98028.94;;;-0.28;81.73
51261;BME280;61705;46.228;24.812;2023-03-19T06:54:44;98028.13;;;-0.19;81.47
51261;BME280;61705;46.228;24.812;2023-03-19T06:57:11;98038.53;;;-0.12;81.25
51261;BME280;61705;46.228;24.812;2023-03-19T06:59:37;98034.22;;;0.01;80.94
51261;BME280;61705;46.228;24.812;2023-03-19T07:02:04;98032.53;;;0.14;80.80
51261;BME280;61705;46.228;24.812;2023-03-19T07:04:31;98031.66;;;0.22;80.18
51261;BME280;61705;46.228;24.812;2023-03-19T07:06:58;98034.25;;;0.33;80.41
51261;BME280;61705;46.228;24.812;2023-03-19T07:09:27;98029.94;;;0.46;79.88
51261;BME280;61705;46.228;24.812;2023-03-19T07:11:54;98034.25;;;0.58;79.63
51261;BME280;61705;46.228;24.812;2023-03-19T07:14:23;98037.75;;;0.72;79.46
51261;BME280;61705;46.228;24.812;2023-03-19T07:16:50;98033.41;;;0.89;79.05
51261;BME280;61705;46.228;24.812;2023-03-19T07:19:17;98034.22;;;1.02;78.32
51261;BME280;61705;46.228;24.812;2023-03-19T07:21:45;98025.53;;;1.11;78.26
51261;BME280;61705;46.228;24.812;2023-03-19T07:24:12;98021.19;;;1.24;78.00
51261;BME280;61705;46.228;24.812;2023-03-19T07:26:39;98010.72;;;1.37;77.77
51261;BME280;61705;46.228;24.812;2023-03-19T07:29:07;98014.16;;;1.47;77.41
51261;BME280;61705;46.228;24.812;2023-03-19T07:31:36;98010.59;;;1.68;77.39
51261;BME280;61705;46.228;24.812;2023-03-19T07:34:04;98013.13;;;1.80;76.87
51261;BME280;61705;46.228;24.812;2023-03-19T07:36:30;98021.72;;;1.95;76.71
51261;BME280;61705;46.228;24.812;2023-03-19T07:39:03;98010.41;;;2.00;75.98
51261;BME280;61705;46.228;24.812;2023-03-19T07:41:33;98012.13;;;2.03;75.59
51261;BME280;61705;46.228;24.812;2023-03-19T07:43:59;98006.81;;;2.15;75.44
51261;BME280;61705;46.228;24.812;2023-03-19T07:46:26;97997.25;;;2.17;75.22
51261;BME280;61705;46.228;24.812;2023-03-19T07:48:58;98008.47;;;2.33;75.46
51261;BME280;61705;46.228;24.812;2023-03-19T07:51:28;98003.22;;;2.36;74.93
51261;BME280;61705;46.228;24.812;2023-03-19T07:53:54;98007.38;;;2.55;74.34
51261;BME280;61705;46.228;24.812;2023-03-19T07:56:21;98008.22;;;2.62;73.98
51261;BME280;61705;46.228;24.812;2023-03-19T07:58:48;98000.31;;;2.67;74.12
51261;BME280;61705;46.228;24.812;2023-03-19T08:01:14;98000.16;;;2.87;73.53
51261;BME280;61705;46.228;24.812;2023-03-19T08:03:41;97999.16;;;3.00;73.24
51261;BME280;61705;46.228;24.812;2023-03-19T08:06:10;98004.19;;;3.17;72.96
51261;BME280;61705;46.228;24.812;2023-03-19T08:08:36;97997.16;;;3.25;72.94
51261;BME280;61705;46.228;24.812;2023-03-19T08:11:03;97995.25;;;3.38;73.05
51261;BME280;61705;46.228;24.812;2023-03-19T08:13:30;97978.63;;;3.45;71.98
51261;BME280;61705;46.228;24.812;2023-03-19T08:15:58;97984.50;;;3.64;71.84
51261;BME280;61705;46.228;24.812;2023-03-19T08:18:25;97980.84;;;3.77;71.89
51261;BME280;61705;46.228;24.812;2023-03-19T08:20:55;97981.44;;;3.96;71.17
51261;BME280;61705;46.228;24.812;2023-03-19T08:23:23;97980.38;;;4.09;71.13
51261;BME280;61705;46.228;24.812;2023-03-19T08:25:50;97985.31;;;4.29;70.90
51261;BME280;61705;46.228;24.812;2023-03-19T08:28:18;97981.56;;;4.44;69.38
51261;BME280;61705;46.228;24.812;2023-03-19T08:30:50;97977.28;;;4.41;68.72
51261;BME280;61705;46.228;24.812;2023-03-19T08:33:18;97970.16;;;4.49;69.58
51261;BME280;61705;46.228;24.812;2023-03-19T08:35:48;97971.81;;;4.55;70.13
51261;BME280;61705;46.228;24.812;2023-03-19T08:38:14;97971.63;;;4.66;69.89
51261;BME280;61705;46.228;24.812;2023-03-19T08:40:41;97960.84;;;4.83;68.87
51261;BME280;61705;46.228;24.812;2023-03-19T08:43:07;97960.59;;;4.96;69.31
51261;BME280;61705;46.228;24.812;2023-03-19T08:45:39;97945.50;;;5.11;67.04
51261;BME280;61705;46.228;24.812;2023-03-19T08:48:05;97941.53;;;5.33;67.72
51261;BME280;61705;46.228;24.812;2023-03-19T08:50:32;97941.22;;;5.49;67.89
51261;BME280;61705;46.228;24.812;2023-03-19T08:52:59;97929.97;;;5.43;68.28
51261;BME280;61705;46.228;24.812;2023-03-19T08:55:26;97932.16;;;5.63;66.44
51261;BME280;61705;46.228;24.812;2023-03-19T08:57:55;97929.41;;;5.71;64.62
51261;BME280;61705;46.228;24.812;2023-03-19T09:00:26;97927.69;;;6.09;64.91
51261;BME280;61705;46.228;24.812;2023-03-19T09:02:53;97926.66;;;6.14;65.00
51261;BME280;61705;46.228;24.812;2023-03-19T09:05:23;97922.22;;;6.18;64.45
51261;BME280;61705;46.228;24.812;2023-03-19T09:07:49;97918.38;;;6.33;63.32
51261;BME280;61705;46.228;24.812;2023-03-19T09:10:17;97913.06;;;6.34;63.50
51261;BME280;61705;46.228;24.812;2023-03-19T09:12:47;97915.22;;;6.53;63.43
51261;BME280;61705;46.228;24.812;2023-03-19T09:15:14;97914.63;;;6.76;62.22
51261;BME280;61705;46.228;24.812;2023-03-19T09:17:41;97907.88;;;6.67;62.83
51261;BME280;61705;46.228;24.812;2023-03-19T09:20:08;97911.16;;;6.75;62.27
51261;BME280;61705;46.228;24.812;2023-03-19T09:22:37;97901.75;;;6.99;61.28
51261;BME280;61705;46.228;24.812;2023-03-19T09:25:04;97894.16;;;7.20;61.32
51261;BME280;61705;46.228;24.812;2023-03-19T09:27:32;97892.13;;;7.29;60.83
51261;BME280;61705;46.228;24.812;2023-03-19T09:30:01;97891.88;;;7.39;60.57
51261;BME280;61705;46.228;24.812;2023-03-19T09:32:29;97883.88;;;7.42;60.00
51261;BME280;61705;46.228;24.812;2023-03-19T09:34:55;97884.38;;;7.54;58.99
51261;BME280;61705;46.228;24.812;2023-03-19T09:37:22;97876.25;;;7.62;59.25
51261;BME280;61705;46.228;24.812;2023-03-19T09:39:54;97873.06;;;7.52;59.40
51261;BME280;61705;46.228;24.812;2023-03-19T09:45:18;97872.59;;;7.68;57.81
51261;BME280;61705;46.228;24.812;2023-03-19T09:47:48;97861.63;;;7.81;57.90
51261;BME280;61705;46.228;24.812;2023-03-19T09:50:20;97858.94;;;8.11;57.21
51261;BME280;61705;46.228;24.812;2023-03-19T09:56:11;97855.97;;;8.20;57.30
51261;BME280;61705;46.228;24.812;2023-03-19T09:58:41;97853.22;;;8.25;56.91
51261;BME280;61705;46.228;24.812;2023-03-19T10:01:16;97851.50;;;8.24;55.46
51261;BME280;61705;46.228;24.812;2023-03-19T10:06:25;97846.56;;;8.41;55.50
51261;BME280;61705;46.228;24.812;2023-03-19T10:17:00;97823.75;;;8.90;52.55
51261;BME280;61705;46.228;24.812;2023-03-19T10:19:52;97815.56;;;8.98;51.13
51261;BME280;61705;46.228;24.812;2023-03-19T10:22:27;97811.50;;;9.13;46.84
51261;BME280;61705;46.228;24.812;2023-03-19T10:24:55;97806.72;;;9.22;48.62
51261;BME280;61705;46.228;24.812;2023-03-19T10:27:25;97800.91;;;9.36;49.24
51261;BME280;61705;46.228;24.812;2023-03-19T10:29:51;97805.84;;;9.45;48.71
51261;BME280;61705;46.228;24.812;2023-03-19T10:32:37;97805.63;;;9.52;49.09
51261;BME280;61705;46.228;24.812;2023-03-19T10:35:10;97805.84;;;9.67;48.88
51261;BME280;61705;46.228;24.812;2023-03-19T10:37:41;97808.69;;;9.63;48.92
51261;BME280;61705;46.228;24.812;2023-03-19T10:40:13;97798.63;;;9.72;48.42
51261;BME280;61705;46.228;24.812;2023-03-19T10:42:51;97804.16;;;9.88;48.43
51261;BME280;61705;46.228;24.812;2023-03-19T10:47:45;97793.28;;;9.96;47.04
51261;BME280;61705;46.228;24.812;2023-03-19T10:50:15;97789.94;;;9.91;46.86
51261;BME280;61705;46.228;24.812;2023-03-19T10:52:44;97785.34;;;9.74;46.96
51261;BME280;61705;46.228;24.812;2023-03-19T10:55:24;97790.47;;;9.79;46.92
51261;BME280;61705;46.228;24.812;2023-03-19T10:57:55;97779.66;;;9.85;46.76
51261;BME280;61705;46.228;24.812;2023-03-19T11:00:25;97774.13;;;10.11;46.35
51261;BME280;61705;46.228;24.812;2023-03-19T11:02:54;97769.50;;;10.38;45.74
51261;BME280;61705;46.228;24.812;2023-03-19T11:07:49;97757.47;;;10.31;46.20
51261;BME280;61705;46.228;24.812;2023-03-19T11:10:16;97758.06;;;10.58;45.31
51261;BME280;61705;46.228;24.812;2023-03-19T11:12:46;97754.66;;;10.75;43.91
51261;BME280;61705;46.228;24.812;2023-03-19T11:15:25;97752.88;;;10.76;44.49
51261;BME280;61705;46.228;24.812;2023-03-19T11:17:58;97755.06;;;10.66;45.02
51261;BME280;61705;46.228;24.812;2023-03-19T11:22:54;97753.69;;;10.78;44.79
51261;BME280;61705;46.228;24.812;2023-03-19T11:25:33;97745.00;;;10.95;44.15
51261;BME280;61705;46.228;24.812;2023-03-19T11:28:13;97739.31;;;10.83;44.59
51261;BME280;61705;46.228;24.812;2023-03-19T11:31:07;97732.25;;;11.03;43.48
51261;BME280;61705;46.228;24.812;2023-03-19T11:36:21;97733.03;;;10.86;43.28
51261;BME280;61705;46.228;24.812;2023-03-19T11:42:10;97718.09;;;11.04;41.64
51261;BME280;61705;46.228;24.812;2023-03-19T11:52:30;97712.88;;;11.40;41.86
51261;BME280;61705;46.228;24.812;2023-03-19T12:00:34;97690.38;;;11.85;41.22
51261;BME280;61705;46.228;24.812;2023-03-19T12:05:50;97685.34;;;11.61;39.97
51261;BME280;61705;46.228;24.812;2023-03-19T12:08:25;97677.34;;;11.80;40.15
51261;BME280;61705;46.228;24.812;2023-03-19T12:26:28;97665.03;;;12.31;37.55
51261;BME280;61705;46.228;24.812;2023-03-19T12:34:30;97657.91;;;12.49;37.24
51261;BME280;61705;46.228;24.812;2023-03-19T12:39:51;97643.16;;;12.44;37.07
51261;BME280;61705;46.228;24.812;2023-03-19T12:42:21;97651.59;;;12.52;37.05
51261;BME280;61705;46.228;24.812;2023-03-19T12:44:55;97648.34;;;12.78;37.11
51261;BME280;61705;46.228;24.812;2023-03-19T12:47:28;97646.22;;;12.85;36.50
51261;BME280;61705;46.228;24.812;2023-03-19T12:50:04;97643.50;;;12.87;36.60
51261;BME280;61705;46.228;24.812;2023-03-19T12:52:37;97643.84;;;12.80;36.89
51261;BME280;61705;46.228;24.812;2023-03-19T12:55:11;97639.06;;;12.87;36.87
51261;BME280;61705;46.228;24.812;2023-03-19T12:57:47;97643.84;;;12.80;36.48
51261;BME280;61705;46.228;24.812;2023-03-19T13:00:16;97632.13;;;13.00;36.25
51261;BME280;61705;46.228;24.812;2023-03-19T13:05:31;97623.13;;;13.19;36.40
51261;BME280;61705;46.228;24.812;2023-03-19T13:08:04;97625.25;;;13.12;36.17
51261;BME280;61705;46.228;24.812;2023-03-19T13:10:39;97627.50;;;13.20;36.44
51261;BME280;61705;46.228;24.812;2023-03-19T13:13:32;97618.75;;;13.18;35.93
51261;BME280;61705;46.228;24.812;2023-03-19T13:15:53;97621.00;;;13.41;35.80
51261;BME280;61705;46.228;24.812;2023-03-19T13:23:37;97605.63;;;13.46;35.45
51261;BME280;61705;46.228;24.812;2023-03-19T13:26:07;97611.59;;;13.66;34.98
51261;BME280;61705;46.228;24.812;2023-03-19T13:28:37;97603.91;;;13.61;34.12
51261;BME280;61705;46.228;24.812;2023-03-19T13:31:24;97610.38;;;13.71;34.69
51261;BME280;61705;46.228;24.812;2023-03-19T13:34:01;97600.63;;;13.86;33.66
51261;BME280;61705;46.228;24.812;2023-03-19T13:36:36;97594.66;;;13.97;33.63
51261;BME280;61705;46.228;24.812;2023-03-19T13:39:26;97600.00;;;14.11;33.88
51261;BME280;61705;46.228;24.812;2023-03-19T13:47:00;97592.72;;;14.29;33.37
51261;BME280;61705;46.228;24.812;2023-03-19T13:51:59;97585.41;;;14.47;33.20
51261;BME280;61705;46.228;24.812;2023-03-19T13:54:39;97587.09;;;14.62;33.13
51261;BME280;61705;46.228;24.812;2023-03-19T13:59:44;97581.56;;;14.94;33.35
51261;BME280;61705;46.228;24.812;2023-03-19T14:04:49;97582.09;;;14.99;32.98
51261;BME280;61705;46.228;24.812;2023-03-19T14:07:19;97577.28;;;14.91;33.15
51261;BME280;61705;46.228;24.812;2023-03-19T14:09:47;97573.84;;;14.89;33.35
51261;BME280;61705;46.228;24.812;2023-03-19T14:17:14;97562.69;;;15.11;33.48
51261;BME280;61705;46.228;24.812;2023-03-19T14:19:44;97562.38;;;15.16;32.99
51261;BME280;61705;46.228;24.812;2023-03-19T14:24:43;97551.72;;;15.56;33.01
51261;BME280;61705;46.228;24.812;2023-03-19T14:27:32;97551.25;;;15.76;32.80
51261;BME280;61705;46.228;24.812;2023-03-19T14:30:06;97541.56;;;16.01;32.66
51261;BME280;61705;46.228;24.812;2023-03-19T14:32:35;97533.03;;;16.21;32.45
51261;BME280;61705;46.228;24.812;2023-03-19T14:35:07;97529.94;;;16.27;31.89
51261;BME280;61705;46.228;24.812;2023-03-19T14:40:11;97527.06;;;16.80;31.80
51261;BME280;61705;46.228;24.812;2023-03-19T14:42:52;97533.81;;;16.97;31.68
51261;BME280;61705;46.228;24.812;2023-03-19T14:55:52;97516.47;;;18.31;30.62
51261;BME280;61705;46.228;24.812;2023-03-19T14:58:19;97515.97;;;18.14;31.27
51261;BME280;61705;46.228;24.812;2023-03-19T15:00:49;97516.81;;;18.15;32.01
51261;BME280;61705;46.228;24.812;2023-03-19T15:05:50;97525.97;;;18.12;31.41